createdAt,value
2018-07-17T00:00:43.502Z,8.23
2018-07-17T00:04:48.727Z,9.70
2018-07-17T00:08:52.980Z,8.53
2018-07-17T00:12:57.170Z,10.10
2018-07-17T00:17:01.170Z,9.27
2018-07-17T00:21:04.993Z,8.80
2018-07-17T00:25:09.215Z,10.13
2018-07-17T00:29:13.398Z,10.10
2018-07-17T00:33:17.853Z,9.80
2018-07-17T00:37:22.002Z,10.97
2018-07-17T00:41:25.959Z,8.27
2018-07-17T00:45:29.861Z,10.43
2018-07-17T00:49:33.671Z,9.97
2018-07-17T00:53:37.603Z,10.20
2018-07-17T00:57:41.344Z,9.50
2018-07-17T01:01:52.168Z,10.33
2018-07-17T01:06:01.645Z,9.80
2018-07-17T01:10:11.067Z,10.80
2018-07-17T01:14:23.309Z,9.77
2018-07-17T01:18:27.232Z,10.83
2018-07-17T01:22:31.040Z,10.00
2018-07-17T01:26:35.062Z,9.80
2018-07-17T01:30:39.041Z,9.60
2018-07-17T01:34:45.162Z,9.90
2018-07-17T01:38:49.807Z,9.80
2018-07-17T01:42:55.048Z,11.70
2018-07-17T01:46:58.755Z,10.73
2018-07-17T01:51:02.753Z,10.70
2018-07-17T01:55:06.597Z,12.03
2018-07-17T01:59:10.409Z,11.63
2018-07-17T02:03:14.517Z,11.50
2018-07-17T02:07:19.670Z,11.93
2018-07-17T02:11:23.750Z,11.67
2018-07-17T02:15:28.365Z,11.70
2018-07-17T02:19:32.000Z,12.03
2018-07-17T02:23:36.173Z,12.03
2018-07-17T02:27:40.021Z,13.50
2018-07-17T02:31:44.956Z,12.27
2018-07-17T02:35:49.013Z,11.23
2018-07-17T02:39:52.914Z,11.30
2018-07-17T02:43:56.902Z,12.00
2018-07-17T02:48:01.161Z,13.10
2018-07-17T02:52:05.097Z,13.93
2018-07-17T02:56:09.006Z,12.20
2018-07-17T03:00:13.024Z,13.97
2018-07-17T03:04:17.653Z,12.67
2018-07-17T03:08:21.669Z,14.17
2018-07-17T03:12:25.776Z,13.60
2018-07-17T03:16:30.143Z,15.87
2018-07-17T03:20:34.315Z,14.37
2018-07-17T03:24:38.565Z,15.47
2018-07-17T03:28:42.326Z,14.80
2018-07-17T03:32:47.744Z,15.50
2018-07-17T03:36:51.726Z,16.23
2018-07-17T03:40:55.515Z,14.33
2018-07-17T03:44:59.447Z,15.03
2018-07-17T03:49:03.458Z,16.50
2018-07-17T03:53:07.685Z,14.50
2018-07-17T03:57:11.593Z,16.97
2018-07-17T04:01:16.452Z,16.03
2018-07-17T04:05:20.487Z,14.97
2018-07-17T04:09:24.602Z,15.20
2018-07-17T04:13:28.245Z,14.27
2018-07-17T04:17:32.276Z,15.90
2018-07-17T04:21:36.029Z,15.07
2018-07-17T04:25:39.700Z,16.50
2018-07-17T04:29:43.507Z,14.87
2018-07-17T04:33:48.007Z,15.27
2018-07-17T04:37:51.844Z,16.23
2018-07-17T04:41:55.660Z,14.57
2018-07-17T04:45:59.368Z,16.00
2018-07-17T04:50:03.119Z,15.43
2018-07-17T04:54:06.786Z,15.50
2018-07-17T04:58:10.496Z,14.07
2018-07-17T05:02:14.464Z,14.90
2018-07-17T05:06:19.030Z,13.83
2018-07-17T05:10:23.306Z,13.27
2018-07-17T05:14:27.023Z,13.80
2018-07-17T05:18:32.413Z,15.50
2018-07-17T05:22:36.552Z,14.73
2018-07-17T05:26:40.357Z,13.13
2018-07-17T05:30:45.546Z,12.27
2018-07-17T05:34:49.636Z,14.80
2018-07-17T05:38:54.565Z,13.43
2018-07-17T05:42:58.364Z,12.63
2018-07-17T05:47:02.172Z,13.27
2018-07-17T05:51:06.122Z,14.33
2018-07-17T05:55:10.069Z,13.83
2018-07-17T05:59:14.792Z,13.03
2018-07-17T06:03:19.514Z,12.57
2018-07-17T06:07:24.126Z,12.90
2018-07-17T06:11:29.235Z,12.00
2018-07-17T06:15:33.765Z,14.37
2018-07-17T06:19:37.641Z,14.77
2018-07-17T06:23:41.471Z,13.90
2018-07-17T06:27:48.200Z,16.13
2018-07-17T06:31:54.273Z,12.50
2018-07-17T06:35:58.910Z,13.53
2018-07-17T06:40:03.187Z,12.47
2018-07-17T06:44:07.652Z,11.33
2018-07-17T06:48:11.693Z,10.87
2018-07-17T06:52:20.101Z,11.13
2018-07-17T06:56:25.181Z,9.37
2018-07-17T07:00:29.265Z,9.00
2018-07-17T07:04:33.089Z,9.07
2018-07-17T07:08:37.227Z,9.83
2018-07-17T07:12:41.201Z,11.57
2018-07-17T07:16:46.148Z,11.07
2018-07-17T07:20:50.712Z,10.90
2018-07-17T07:24:55.112Z,11.63
2018-07-17T07:28:59.294Z,11.50
2018-07-17T07:33:03.279Z,13.80
2018-07-17T07:37:07.018Z,12.50
2018-07-17T07:41:10.764Z,12.40
2018-07-17T07:45:15.422Z,11.60
2018-07-17T07:49:19.463Z,12.57
2018-07-17T07:53:23.549Z,12.43
2018-07-17T07:57:27.576Z,11.90
2018-07-17T08:01:31.292Z,12.63
2018-07-17T08:05:35.378Z,12.90
2018-07-17T08:09:39.757Z,12.70
2018-07-17T08:13:44.398Z,11.90
2018-07-17T08:17:48.807Z,12.67
2018-07-17T08:21:53.246Z,11.10
2018-07-17T08:25:57.093Z,10.90
2018-07-17T08:30:00.952Z,10.50
2018-07-17T08:34:05.071Z,9.70
2018-07-17T08:38:09.026Z,9.00
2018-07-17T08:42:12.796Z,9.23
2018-07-17T08:46:17.626Z,9.40
2018-07-17T08:50:21.736Z,9.23
2018-07-17T08:54:25.598Z,9.00
2018-07-17T08:58:30.151Z,8.57
2018-07-17T09:02:34.068Z,8.40
2018-07-17T09:06:38.335Z,8.50
2018-07-17T09:10:49.547Z,8.97
2018-07-17T09:14:58.370Z,7.60
2018-07-17T09:19:02.928Z,7.60
2018-07-17T09:23:06.830Z,7.47
2018-07-17T09:27:10.658Z,6.67
2018-07-17T09:31:15.055Z,6.20
2018-07-17T09:35:19.475Z,5.50
2018-07-17T09:39:23.898Z,6.37
2018-07-17T09:43:29.369Z,6.10
2018-07-17T09:47:33.823Z,6.50
2018-07-17T09:51:38.079Z,7.00
2018-07-17T09:55:42.368Z,6.20
2018-07-17T09:59:47.065Z,7.30
2018-07-17T10:03:52.246Z,7.97
2018-07-17T10:07:56.506Z,7.90
2018-07-17T10:12:00.787Z,7.30
2018-07-17T10:16:05.072Z,6.70
2018-07-17T10:20:09.787Z,6.60
2018-07-17T10:24:14.537Z,5.60
2018-07-17T10:28:19.361Z,3.70
2018-07-17T10:32:23.467Z,3.43
2018-07-17T10:36:27.191Z,3.20
2018-07-17T10:40:35.021Z,3.30
2018-07-17T10:44:39.322Z,3.30
2018-07-17T10:48:44.885Z,3.63
2018-07-17T10:52:49.459Z,3.70
2018-07-17T10:56:54.607Z,4.60
2018-07-17T11:01:00.619Z,4.20
2018-07-17T11:05:17.622Z,4.30
2018-07-17T11:09:27.522Z,5.33
2018-07-17T11:13:32.505Z,5.10
2018-07-17T11:17:38.236Z,5.50
2018-07-17T11:21:42.519Z,6.83
2018-07-17T11:25:47.018Z,7.10
2018-07-17T11:29:57.381Z,7.00
2018-07-17T11:34:01.116Z,6.50
2018-07-17T11:38:04.828Z,6.47
2018-07-17T11:42:08.666Z,6.37
2018-07-17T11:46:12.916Z,6.23
2018-07-17T11:50:16.977Z,8.03
2018-07-17T11:54:21.289Z,7.57
2018-07-17T11:58:25.422Z,6.97
2018-07-17T12:02:29.186Z,6.83
2018-07-17T12:06:33.605Z,6.50
2018-07-17T12:10:37.630Z,7.20
2018-07-17T12:14:41.324Z,6.67
2018-07-17T12:18:46.140Z,6.70
2018-07-17T12:22:50.541Z,6.50
2018-07-17T12:26:54.828Z,6.37
2018-07-17T12:30:58.696Z,6.37
2018-07-17T12:35:02.924Z,6.63
2018-07-17T12:39:07.607Z,6.30
2018-07-17T12:43:11.776Z,5.67
2018-07-17T12:47:21.092Z,7.57
2018-07-17T12:51:29.993Z,6.73
2018-07-17T12:55:39.580Z,6.33
2018-07-17T12:59:44.420Z,6.37
2018-07-17T13:03:48.864Z,7.50
2018-07-17T13:07:53.756Z,8.20
2018-07-17T13:11:59.148Z,6.80
2018-07-17T13:16:04.983Z,7.50
2018-07-17T13:20:08.944Z,7.60
2018-07-17T13:24:13.181Z,7.07
2018-07-17T13:28:17.462Z,6.53
2018-07-17T13:32:21.333Z,7.60
2018-07-17T13:36:24.921Z,7.33
2018-07-17T13:40:28.742Z,8.03
2018-07-17T13:44:32.376Z,7.10
2018-07-17T13:48:36.045Z,7.30
2018-07-17T13:52:39.648Z,6.13
2018-07-17T13:56:43.296Z,6.03
2018-07-17T14:00:47.667Z,6.33
2018-07-17T14:04:51.506Z,7.40
2018-07-17T14:08:55.374Z,7.50
2018-07-17T14:12:59.472Z,5.90
2018-07-17T14:17:03.244Z,5.83
2018-07-17T14:21:06.981Z,5.40
2018-07-17T14:25:10.549Z,5.70
2018-07-17T14:29:14.631Z,5.27
2018-07-17T14:33:18.600Z,5.10
2018-07-17T14:37:22.639Z,5.40
2018-07-17T14:41:26.854Z,4.70
2018-07-17T14:45:30.893Z,5.90
2018-07-17T14:49:34.957Z,4.40
2018-07-17T14:53:39.051Z,4.90
2018-07-17T14:57:42.638Z,4.97
2018-07-17T15:01:46.596Z,4.33
2018-07-17T15:05:50.197Z,4.80
2018-07-17T15:09:54.032Z,4.60
2018-07-17T15:13:59.942Z,5.50
2018-07-17T15:18:04.252Z,4.47
2018-07-17T15:22:08.334Z,4.33
2018-07-17T15:26:12.452Z,5.00
2018-07-17T15:30:16.793Z,5.13
2018-07-17T15:34:20.730Z,4.13
2018-07-17T15:38:24.363Z,3.60
2018-07-17T15:42:28.091Z,3.77
2018-07-17T15:46:31.688Z,3.90
2018-07-17T15:50:35.345Z,4.80
2018-07-17T15:54:39.037Z,4.67
2018-07-17T15:58:42.593Z,4.70
2018-07-17T16:02:46.614Z,5.07
2018-07-17T16:06:50.633Z,4.70
2018-07-17T16:10:54.665Z,6.30
2018-07-17T16:14:59.281Z,6.70
2018-07-17T16:19:03.257Z,6.47
2018-07-17T16:23:06.948Z,6.67
2018-07-17T16:27:10.492Z,7.53
2018-07-17T16:31:14.168Z,7.57
2018-07-17T16:35:17.912Z,7.30
2018-07-17T16:39:21.679Z,7.50
2018-07-17T16:43:25.665Z,7.17
2018-07-17T16:47:30.076Z,7.20
2018-07-17T16:51:34.135Z,6.43
2018-07-17T16:55:38.077Z,7.63
2018-07-17T16:59:41.795Z,5.67
2018-07-17T17:03:45.728Z,5.53
2018-07-17T17:07:49.758Z,5.87
2018-07-17T17:11:53.706Z,5.90
2018-07-17T17:15:57.598Z,5.27
2018-07-17T17:20:01.557Z,5.23
2018-07-17T17:24:06.037Z,5.40
2018-07-17T17:28:09.921Z,4.93
2018-07-17T17:32:13.850Z,4.77
2018-07-17T17:36:18.061Z,5.30
2018-07-17T17:40:21.745Z,3.60
2018-07-17T17:44:25.462Z,4.40
2018-07-17T17:48:28.987Z,3.90
2018-07-17T17:52:33.532Z,4.53
2018-07-17T17:56:37.075Z,4.63
2018-07-17T18:00:41.050Z,4.67
2018-07-17T18:04:44.760Z,5.83
2018-07-17T18:08:48.680Z,5.93
2018-07-17T18:12:52.390Z,6.67
2018-07-17T18:16:56.452Z,8.03
2018-07-17T18:21:00.689Z,8.47
2018-07-17T18:25:04.818Z,8.20
2018-07-17T18:29:08.886Z,8.93
2018-07-17T18:51:46.363Z,9.23
2018-07-17T18:55:50.227Z,9.70
2018-07-17T18:59:54.177Z,10.00
2018-07-17T19:03:58.192Z,9.17
2018-07-17T19:08:01.861Z,9.77
2018-07-17T19:12:05.416Z,9.83
2018-07-17T19:16:09.192Z,10.00
2018-07-17T19:20:12.851Z,9.20
2018-07-17T19:24:16.420Z,9.57
2018-07-17T19:28:19.943Z,9.50
2018-07-17T19:32:23.743Z,8.00
2018-07-17T19:36:27.658Z,7.80
2018-07-17T19:40:31.339Z,8.97
2018-07-17T19:44:36.462Z,8.47
2018-07-17T19:48:40.929Z,9.30
2018-07-17T19:52:44.852Z,10.53
2018-07-17T19:56:48.504Z,11.17
2018-07-17T20:00:52.271Z,10.00
2018-07-17T20:04:55.960Z,10.30
2018-07-17T20:08:59.472Z,9.20
2018-07-17T20:13:03.256Z,10.20
2018-07-17T20:17:07.462Z,10.23
2018-07-17T20:21:11.406Z,8.90
2018-07-17T20:25:14.943Z,10.10
2018-07-17T20:29:18.720Z,9.40
2018-07-17T20:33:22.659Z,8.90
2018-07-17T20:37:26.561Z,9.07
2018-07-17T20:41:30.203Z,9.93
2018-07-17T20:45:33.748Z,10.50
2018-07-17T20:49:37.275Z,11.10
2018-07-17T20:53:42.258Z,11.10
2018-07-17T20:57:45.907Z,10.60
2018-07-17T21:01:49.801Z,10.43
2018-07-17T21:05:53.662Z,9.93
2018-07-17T21:09:57.664Z,10.70
2018-07-17T21:14:01.532Z,11.03
2018-07-17T21:18:05.203Z,10.00
2018-07-17T21:22:09.023Z,10.67
2018-07-17T21:26:12.710Z,11.10
2018-07-17T21:30:16.476Z,10.97
2018-07-17T21:34:20.166Z,10.40
2018-07-17T21:38:23.923Z,12.17
2018-07-17T21:42:27.856Z,11.20
2018-07-17T21:46:32.104Z,10.57
2018-07-17T21:50:35.868Z,10.77
2018-07-17T21:54:40.945Z,10.00
2018-07-17T21:58:44.647Z,9.00
2018-07-17T22:02:48.392Z,10.00
2018-07-17T22:06:52.100Z,10.10
2018-07-17T22:10:55.643Z,9.90
2018-07-17T22:14:59.530Z,9.50
2018-07-17T22:19:03.564Z,10.97
2018-07-17T22:23:07.571Z,10.50
2018-07-17T22:27:11.450Z,10.17
2018-07-17T22:31:15.441Z,10.47
2018-07-17T22:35:19.333Z,11.03
2018-07-17T22:39:23.076Z,9.30
2018-07-17T22:43:26.607Z,8.80
2018-07-17T22:47:30.184Z,10.20
2018-07-17T22:51:34.684Z,9.67
2018-07-17T22:55:38.376Z,8.93
2018-07-17T22:59:42.515Z,9.37
2018-07-17T23:03:46.264Z,7.73
2018-07-17T23:07:49.863Z,7.30
2018-07-17T23:11:53.645Z,7.20
2018-07-17T23:15:57.533Z,7.40
2018-07-17T23:20:01.212Z,7.67
2018-07-17T23:24:04.747Z,7.80
2018-07-17T23:28:09.584Z,7.87
2018-07-17T23:32:13.229Z,7.00
2018-07-17T23:36:17.085Z,8.53
2018-07-17T23:40:21.376Z,7.10
2018-07-17T23:44:25.606Z,7.07
2018-07-17T23:48:29.256Z,7.37
2018-07-17T23:52:33.130Z,7.13
2018-07-17T23:56:37.121Z,7.50
